Moundridge, Kansas
Current Conditions -  °F | °C
As of 4:35 PM on Monday 26 Jan 2015 (Local Time) from KEWK Reporting Station
Clear Clear  
Wind Chill: 66°   Ceiling: Unl
Heat Index: 66°   Visibility: 10mi
Dew Point: 32°   Wind: 12mph
Humidity: 28%   Direction: 330°NNW
Pressure: 30.01"   Gusts: 17mph
Location:  38.2°N, 97.52°W
Report Text: KEWK 262235Z AUTO 33010G15KT 10SM CLR 19/00 A3001 RMK AO1
Loading
Personal Weather Stations






























Interactive Weather Map New forecast layout! Learn more

10-Day Weather Forecast

Advertisements
Track Severe Weather on mobile